Repton, Alabama
Current Conditions -  °F | °C
As of 8:53 AM on Saturday 25 Oct 2014 (Local Time) from KGZH Reporting Station
Clear Clear  
Wind Chill: 60°   Ceiling: Unl
Heat Index: 60°   Visibility: 10mi
Dew Point: 49°   Wind: 3mph
Humidity: 67%   Direction: 340°NNW
Pressure: 30.12"   Gusts: NA
Location:  31.41°N, 87.24°W
Report Text: KGZH 251353Z AUTO 34003KT 10SM CLR 16/09 A3012 RMK AO2 SLP199 T01560094
Loading
Personal Weather Stations






























Interactive Weather Map
Tropical Storm Tracking
New forecast layout! Learn more

10-Day Weather Forecast

Advertisements
Track Severe Weather on mobile